createdAt,value
2023-04-15T00:01:12.282Z,99492.51
2023-04-15T00:03:40.498Z,99491.23
2023-04-15T00:06:08.788Z,99493.00
2023-04-15T00:08:36.672Z,99494.14
2023-04-15T00:11:06.126Z,99492.74
2023-04-15T00:13:36.676Z,99493.90
2023-04-15T00:16:05.437Z,99494.95
2023-04-15T00:18:33.265Z,99490.34
2023-04-15T00:21:01.817Z,99490.95
2023-04-15T00:23:29.840Z,99494.83
2023-04-15T00:25:57.893Z,99496.36
2023-04-15T00:28:25.794Z,99494.77
2023-04-15T00:30:53.680Z,99490.59
2023-04-15T00:33:21.581Z,99488.27
2023-04-15T00:35:49.405Z,99486.44
2023-04-15T00:38:18.962Z,99486.92
2023-04-15T00:40:46.883Z,99483.48
2023-04-15T00:43:15.174Z,99480.49
2023-04-15T00:45:43.538Z,99484.41
2023-04-15T00:48:12.574Z,99484.09
2023-04-15T00:50:40.491Z,99486.59
2023-04-15T00:53:08.285Z,99485.40
2023-04-15T00:55:36.336Z,99489.33
2023-04-15T00:58:04.217Z,99485.27
2023-04-15T01:00:32.141Z,99488.41
2023-04-15T01:03:00.804Z,99485.71
2023-04-15T01:05:30.571Z,99487.98
2023-04-15T01:07:58.425Z,99485.63
2023-04-15T01:10:26.518Z,99484.14
2023-04-15T01:12:54.873Z,99486.14
2023-04-15T01:15:23.217Z,99490.81
2023-04-15T01:17:51.153Z,99487.64
2023-04-15T01:20:19.621Z,99490.36
2023-04-15T01:22:49.136Z,99491.94
2023-04-15T01:25:20.057Z,99489.34
2023-04-15T01:27:48.642Z,99492.81
2023-04-15T01:30:17.540Z,99492.70
2023-04-15T01:32:45.466Z,99494.89
2023-04-15T01:35:13.396Z,99491.92
2023-04-15T01:45:15.604Z,99489.65
2023-04-15T01:47:43.775Z,99491.04
2023-04-15T01:50:11.727Z,99490.53
2023-04-15T01:52:39.685Z,99490.68
2023-04-15T01:55:09.275Z,99488.20
2023-04-15T01:57:37.197Z,99488.30
2023-04-15T02:00:07.852Z,99486.64
2023-04-15T02:02:41.871Z,99488.62
2023-04-15T02:05:11.093Z,99489.03
2023-04-15T02:07:39.192Z,99486.96
2023-04-15T02:10:07.310Z,99483.89
2023-04-15T02:12:36.994Z,99484.35
2023-04-15T02:15:06.004Z,99479.29
2023-04-15T02:17:37.884Z,99481.00
2023-04-15T02:20:07.035Z,99479.31
2023-04-15T02:22:35.399Z,99482.55
2023-04-15T02:25:03.877Z,99479.99
2023-04-15T02:27:33.282Z,99484.72
2023-04-15T02:30:01.217Z,99481.77
2023-04-15T02:32:29.285Z,99484.67
2023-04-15T02:35:02.208Z,99479.38
2023-04-15T02:37:31.987Z,99481.53
2023-04-15T02:40:01.138Z,99476.22
2023-04-15T02:42:31.965Z,99479.33
2023-04-15T02:45:00.942Z,99480.63
2023-04-15T02:47:32.069Z,99477.89
2023-04-15T02:50:01.814Z,99472.85
2023-04-15T02:52:30.068Z,99471.34
2023-04-15T02:55:00.917Z,99475.05
2023-04-15T02:57:32.456Z,99467.54
2023-04-15T03:00:06.222Z,99470.44
2023-04-15T03:02:37.151Z,99465.67
2023-04-15T03:05:07.130Z,99471.63
2023-04-15T03:07:35.072Z,99470.70
2023-04-15T03:10:03.699Z,99467.48
2023-04-15T03:12:31.679Z,99467.97
2023-04-15T03:15:02.376Z,99469.20
2023-04-15T03:17:35.854Z,99469.29
2023-04-15T03:20:06.040Z,99473.17
2023-04-15T03:22:34.338Z,99471.65
2023-04-15T03:25:02.284Z,99469.98
2023-04-15T03:27:30.116Z,99471.31
2023-04-15T03:30:00.707Z,99472.00
2023-04-15T03:32:29.762Z,99472.86
2023-04-15T03:34:57.998Z,99471.21
2023-04-15T03:37:26.581Z,99473.42
2023-04-15T03:39:54.892Z,99474.04
2023-04-15T03:42:22.743Z,99471.30
2023-04-15T03:44:50.845Z,99473.91
2023-04-15T03:47:18.678Z,99471.78
2023-04-15T03:49:46.418Z,99471.39
2023-04-15T03:52:14.135Z,99475.09
2023-04-15T03:54:41.954Z,99475.83
2023-04-15T03:57:09.921Z,99475.91
2023-04-15T03:59:37.796Z,99480.76
2023-04-15T04:02:05.924Z,99479.93
2023-04-15T04:04:34.425Z,99483.33
2023-04-15T04:07:02.397Z,99483.90
2023-04-15T04:09:30.438Z,99483.33
2023-04-15T04:11:58.685Z,99484.31
2023-04-15T04:14:29.821Z,99481.26
2023-04-15T04:16:57.906Z,99481.14
2023-04-15T04:19:26.442Z,99482.77
2023-04-15T04:21:54.319Z,99485.45
2023-04-15T04:24:22.283Z,99482.16
2023-04-15T04:26:50.263Z,99479.77
2023-04-15T04:29:18.074Z,99482.52
2023-04-15T04:31:47.342Z,99485.15
2023-04-15T04:34:16.210Z,99484.13
2023-04-15T04:36:44.470Z,99487.05
2023-04-15T04:39:12.444Z,99485.90
2023-04-15T04:41:40.251Z,99481.93
2023-04-15T04:44:08.179Z,99480.73
2023-04-15T04:46:36.148Z,99481.44
2023-04-15T04:49:04.414Z,99482.94
2023-04-15T04:51:33.107Z,99483.79
2023-04-15T04:54:03.085Z,99484.41
2023-04-15T04:56:31.724Z,99482.12
2023-04-15T04:58:59.750Z,99479.14
2023-04-15T05:01:28.568Z,99481.50
2023-04-15T05:03:56.670Z,99486.42
2023-04-15T05:06:24.712Z,99487.92
2023-04-15T05:08:52.549Z,99484.41
2023-04-15T05:11:20.397Z,99486.50
2023-04-15T05:13:48.244Z,99485.16
2023-04-15T05:16:16.211Z,99483.98
2023-04-15T05:18:44.115Z,99487.14
2023-04-15T05:21:12.261Z,99489.09
2023-04-15T05:23:41.115Z,99490.63
2023-04-15T05:26:09.281Z,99493.20
2023-04-15T05:28:37.132Z,99492.53
2023-04-15T05:31:06.219Z,99490.26
2023-04-15T05:33:34.355Z,99494.85
2023-04-15T05:36:02.300Z,99495.41
2023-04-15T05:38:30.766Z,99493.82
2023-04-15T05:40:58.628Z,99494.99
2023-04-15T05:43:28.232Z,99496.33
2023-04-15T05:45:56.849Z,99494.17
2023-04-15T05:48:24.714Z,99493.64
2023-04-15T05:50:52.866Z,99491.70
2023-04-15T05:53:20.781Z,99490.81
2023-04-15T05:55:48.791Z,99494.72
2023-04-15T05:58:16.769Z,99493.13
2023-04-15T06:00:44.766Z,99495.02
2023-04-15T06:03:13.396Z,99495.63
2023-04-15T06:05:42.104Z,99498.63
2023-04-15T06:08:09.894Z,99502.99
2023-04-15T06:10:37.930Z,99502.56
2023-04-15T06:13:06.113Z,99505.84
2023-04-15T06:15:36.035Z,99507.71
2023-04-15T06:18:04.119Z,99512.16
2023-04-15T06:20:31.996Z,99511.39
2023-04-15T06:22:59.831Z,99512.53
2023-04-15T06:25:27.697Z,99510.98
2023-04-15T06:27:55.580Z,99508.46
2023-04-15T06:30:24.488Z,99509.81
2023-04-15T06:32:52.760Z,99510.70
2023-04-15T06:35:20.819Z,99513.78
2023-04-15T06:37:48.624Z,99513.45
2023-04-15T06:40:17.156Z,99511.20
2023-04-15T06:42:44.995Z,99514.93
2023-04-15T06:45:12.924Z,99519.48
2023-04-15T06:47:42.234Z,99519.08
2023-04-15T06:50:11.780Z,99521.99
2023-04-15T06:52:41.030Z,99522.33
2023-04-15T06:55:09.075Z,99521.43
2023-04-15T06:57:36.999Z,99527.94
2023-04-15T07:00:05.901Z,99526.46
2023-04-15T07:02:34.546Z,99530.15
2023-04-15T07:05:02.865Z,99530.52
2023-04-15T07:07:30.711Z,99530.75
2023-04-15T07:09:58.683Z,99534.95
2023-04-15T07:12:26.782Z,99537.94
2023-04-15T07:14:54.618Z,99537.67
2023-04-15T07:17:22.696Z,99538.98
2023-04-15T07:19:50.989Z,99540.80
2023-04-15T07:22:18.989Z,99539.73
2023-04-15T07:24:46.850Z,99543.34
2023-04-15T07:27:14.772Z,99540.16
2023-04-15T07:29:42.596Z,99537.27
2023-04-15T07:32:10.932Z,99539.89
2023-04-15T07:34:38.771Z,99539.01
2023-04-15T07:37:06.694Z,99542.95
2023-04-15T07:39:34.470Z,99536.71
2023-04-15T07:42:02.579Z,99535.88
2023-04-15T07:44:30.544Z,99534.73
2023-04-15T07:46:58.690Z,99533.51
2023-04-15T07:49:26.544Z,99535.71
2023-04-15T07:51:55.053Z,99534.09
2023-04-15T07:54:22.861Z,99535.14
2023-04-15T07:56:50.726Z,99534.66
2023-04-15T07:59:18.866Z,99535.55
2023-04-15T08:01:46.798Z,99538.31
2023-04-15T08:04:14.816Z,99534.63
2023-04-15T08:06:42.666Z,99534.98
2023-04-15T08:09:10.574Z,99540.47
2023-04-15T08:11:38.553Z,99540.46
2023-04-15T08:14:07.072Z,99536.81
2023-04-15T08:16:35.228Z,99535.57
2023-04-15T08:19:04.016Z,99534.06
2023-04-15T08:21:32.380Z,99539.41
2023-04-15T08:24:00.540Z,99537.14
2023-04-15T08:26:28.480Z,99538.36
2023-04-15T08:28:56.533Z,99542.94
2023-04-15T08:31:27.158Z,99540.36
2023-04-15T08:33:56.933Z,99539.33
2023-04-15T08:36:24.849Z,99543.99
2023-04-15T08:38:52.775Z,99543.58
2023-04-15T08:41:25.765Z,99546.41
2023-04-15T08:43:58.833Z,99547.13
2023-04-15T08:46:27.071Z,99549.21
2023-04-15T08:48:57.847Z,99550.13
2023-04-15T08:51:26.617Z,99546.12
2023-04-15T08:53:55.067Z,99545.92
2023-04-15T08:56:28.202Z,99546.08
2023-04-15T08:58:57.255Z,99545.92
2023-04-15T09:01:25.700Z,99543.04
2023-04-15T09:03:57.241Z,99547.54
2023-04-15T09:06:25.899Z,99549.86
2023-04-15T09:08:53.774Z,99548.57
2023-04-15T09:11:22.523Z,99552.72
2023-04-15T09:13:50.771Z,99553.18
2023-04-15T09:16:18.984Z,99552.30
2023-04-15T09:18:46.987Z,99554.46
2023-04-15T09:21:17.539Z,99553.22
2023-04-15T09:23:57.334Z,99553.89
2023-04-15T09:26:35.102Z,99558.50
2023-04-15T09:29:10.568Z,99558.91
2023-04-15T09:31:38.382Z,99562.36
2023-04-15T09:34:07.382Z,99561.43
2023-04-15T09:36:53.042Z,99560.54
2023-04-15T09:39:21.625Z,99560.90
2023-04-15T09:42:08.505Z,99566.20
2023-04-15T09:44:36.842Z,99567.08
2023-04-15T09:47:04.927Z,99572.63
2023-04-15T09:49:33.108Z,99571.11
2023-04-15T09:52:06.075Z,99572.05
2023-04-15T09:54:36.768Z,99572.86
2023-04-15T09:57:10.297Z,99574.42
2023-04-15T09:59:38.563Z,99575.02
2023-04-15T10:02:07.827Z,99577.80
2023-04-15T10:04:40.073Z,99577.29
2023-04-15T10:07:10.056Z,99580.91
2023-04-15T10:09:39.601Z,99577.21
2023-04-15T10:12:08.834Z,99577.02
2023-04-15T10:14:38.962Z,99581.38
2023-04-15T10:17:10.450Z,99582.30
2023-04-15T10:19:38.477Z,99579.77
2023-04-15T10:22:07.025Z,99579.48
2023-04-15T10:24:35.363Z,99580.92
2023-04-15T10:27:07.520Z,99580.19
2023-04-15T10:29:35.554Z,99585.17
2023-04-15T10:32:04.635Z,99584.75
2023-04-15T10:34:32.894Z,99586.23
2023-04-15T10:37:04.700Z,99586.38
2023-04-15T10:39:41.660Z,99587.58
2023-04-15T10:42:15.475Z,99589.11
2023-04-15T10:44:53.883Z,99591.33
2023-04-15T10:47:22.707Z,99589.50
2023-04-15T10:49:57.173Z,99586.91
2023-04-15T10:52:27.806Z,99587.47
2023-04-15T10:55:14.878Z,99586.33
2023-04-15T10:57:45.281Z,99591.48
2023-04-15T11:00:20.111Z,99590.09
2023-04-15T11:02:54.616Z,99587.45
2023-04-15T11:05:44.015Z,99590.08
2023-04-15T11:08:13.288Z,99590.92
2023-04-15T11:10:51.001Z,99591.77
2023-04-15T11:13:27.182Z,99597.35
2023-04-15T11:15:59.367Z,99596.05
2023-04-15T11:18:30.835Z,99594.49
2023-04-15T11:21:03.799Z,99595.70
2023-04-15T11:23:36.153Z,99595.05
2023-04-15T11:26:09.355Z,99598.35
2023-04-15T11:28:39.187Z,99601.23
2023-04-15T11:31:15.187Z,99599.77
2023-04-15T11:34:01.751Z,99601.67
2023-04-15T11:36:32.250Z,99610.03
2023-04-15T11:39:00.828Z,99609.08
2023-04-15T11:41:30.038Z,99603.93
2023-04-15T11:43:59.423Z,99611.44
2023-04-15T11:46:32.358Z,99610.30
2023-04-15T11:49:00.583Z,99610.65
2023-04-15T11:51:36.222Z,99609.44
2023-04-15T11:54:04.816Z,99606.77
2023-04-15T11:56:33.125Z,99604.41
2023-04-15T11:59:01.101Z,99610.04
2023-04-15T12:01:42.372Z,99609.59
2023-04-15T12:04:16.099Z,99608.20
2023-04-15T12:06:43.976Z,99610.77
2023-04-15T12:09:18.482Z,99615.52
2023-04-15T12:11:52.961Z,99623.58
2023-04-15T12:14:31.397Z,99622.88
2023-04-15T12:17:02.241Z,99627.21
2023-04-15T12:19:42.004Z,99628.52
2023-04-15T12:22:11.974Z,99633.67
2023-04-15T12:24:40.649Z,99632.94
2023-04-15T12:27:11.584Z,99631.23
2023-04-15T12:29:42.058Z,99632.91
2023-04-15T12:32:15.308Z,99633.31
2023-04-15T12:34:45.837Z,99632.14
2023-04-15T12:37:14.523Z,99633.40
2023-04-15T12:39:44.424Z,99635.63
2023-04-15T12:42:13.223Z,99636.67
2023-04-15T12:44:41.705Z,99636.00
2023-04-15T12:47:11.116Z,99636.90
2023-04-15T12:49:40.501Z,99639.79
2023-04-15T12:52:08.668Z,99638.98
2023-04-15T12:54:36.748Z,99638.90
2023-04-15T12:57:07.221Z,99637.63
2023-04-15T12:59:36.389Z,99632.85
2023-04-15T13:02:04.801Z,99633.19
2023-04-15T13:04:33.333Z,99636.85
2023-04-15T13:07:02.628Z,99646.11
2023-04-15T13:09:31.324Z,99658.05
2023-04-15T13:11:59.414Z,99658.08
2023-04-15T13:14:27.849Z,99660.95
2023-04-15T13:16:55.939Z,99661.28
2023-04-15T13:19:23.911Z,99666.67
2023-04-15T13:21:51.754Z,99671.89
2023-04-15T13:24:19.629Z,99672.52
2023-04-15T13:26:49.738Z,99677.55
2023-04-15T13:29:18.216Z,99678.21
2023-04-15T13:31:46.259Z,99680.02
2023-04-15T13:34:14.275Z,99687.72
2023-04-15T13:36:42.364Z,99688.11
2023-04-15T13:39:10.311Z,99687.70
2023-04-15T13:41:38.187Z,99686.64
2023-04-15T13:44:06.483Z,99685.48
2023-04-15T13:46:34.634Z,99681.04
2023-04-15T13:49:02.496Z,99679.04
2023-04-15T13:51:31.190Z,99681.98
2023-04-15T13:53:59.057Z,99684.89
2023-04-15T13:56:27.344Z,99679.67
2023-04-15T13:58:59.050Z,99675.17
2023-04-15T14:01:27.294Z,99674.39
2023-04-15T14:03:55.883Z,99675.73
2023-04-15T14:06:24.784Z,99674.11
2023-04-15T14:08:53.055Z,99679.69
2023-04-15T14:11:21.106Z,99681.20
2023-04-15T14:13:48.951Z,99688.23
2023-04-15T14:16:16.942Z,99686.10
2023-04-15T14:18:44.811Z,99683.55
2023-04-15T14:21:13.012Z,99682.83
2023-04-15T14:23:41.310Z,99677.48
2023-04-15T14:26:09.394Z,99677.06
2023-04-15T14:28:39.157Z,99674.23
2023-04-15T14:31:07.332Z,99680.52
2023-04-15T14:33:35.566Z,99684.17
2023-04-15T14:36:04.188Z,99685.17
2023-04-15T14:38:33.810Z,99683.72
2023-04-15T14:41:02.171Z,99687.14
2023-04-15T14:43:30.188Z,99694.55
2023-04-15T14:45:58.211Z,99695.89
2023-04-15T14:48:28.914Z,99696.23
2023-04-15T14:50:56.826Z,99700.50
2023-04-15T14:53:24.742Z,99706.47
2023-04-15T14:55:52.810Z,99711.14
2023-04-15T14:58:20.778Z,99715.94
2023-04-15T15:00:48.746Z,99718.38
2023-04-15T15:03:17.018Z,99722.80
2023-04-15T15:05:47.047Z,99724.58
2023-04-15T15:08:15.528Z,99724.33
2023-04-15T15:10:48.676Z,99721.11
2023-04-15T15:13:19.322Z,99719.50
2023-04-15T15:15:49.818Z,99721.27
2023-04-15T15:18:19.332Z,99721.43
2023-04-15T15:20:47.781Z,99723.30
2023-04-15T15:23:16.014Z,99727.73
2023-04-15T15:25:44.741Z,99726.79
2023-04-15T15:28:12.706Z,99719.63
2023-04-15T15:30:40.792Z,99721.88
2023-04-15T15:33:08.830Z,99724.48
2023-04-15T15:35:36.771Z,99722.38
2023-04-15T15:38:04.977Z,99722.55
2023-04-15T15:40:32.952Z,99728.36
2023-04-15T15:43:00.973Z,99729.69
2023-04-15T15:45:29.028Z,99736.88
2023-04-15T15:47:58.512Z,99737.44
2023-04-15T15:50:26.524Z,99741.65
2023-04-15T15:52:55.322Z,99745.17
2023-04-15T15:55:25.464Z,99746.77
2023-04-15T15:57:54.416Z,99747.30
2023-04-15T16:00:23.313Z,99757.66
2023-04-15T16:03:06.840Z,99759.18
2023-04-15T16:05:36.518Z,99754.98
2023-04-15T16:08:04.783Z,99754.23
2023-04-15T16:10:33.068Z,99764.39
2023-04-15T16:13:02.090Z,99768.97
2023-04-15T16:15:30.359Z,99772.66
2023-04-15T16:17:58.240Z,99774.14
2023-04-15T16:20:28.435Z,99780.02
2023-04-15T16:22:58.726Z,99780.73
2023-04-15T16:25:26.831Z,99782.73
2023-04-15T16:28:05.609Z,99787.14
2023-04-15T16:30:40.507Z,99787.44
2023-04-15T16:33:09.388Z,99788.14
2023-04-15T16:35:37.337Z,99790.27
2023-04-15T16:38:05.204Z,99789.60
2023-04-15T16:40:33.270Z,99793.55
2023-04-15T16:43:03.052Z,99794.90
2023-04-15T16:45:31.220Z,99797.60
2023-04-15T16:47:59.472Z,99798.08
2023-04-15T16:50:27.450Z,99804.68
2023-04-15T16:52:55.848Z,99814.05
2023-04-15T16:55:23.867Z,99818.83
2023-04-15T16:58:01.883Z,99813.98
2023-04-15T17:00:32.373Z,99818.62
2023-04-15T17:03:00.670Z,99823.92
2023-04-15T17:05:31.088Z,99826.70
2023-04-15T17:15:35.098Z,99832.97
2023-04-15T17:18:04.718Z,99834.84
2023-04-15T17:20:32.791Z,99836.40
2023-04-15T17:23:00.797Z,99834.11
2023-04-15T17:25:28.578Z,99838.60
2023-04-15T17:27:56.810Z,99839.39
2023-04-15T17:30:24.770Z,99844.23
2023-04-15T17:32:53.010Z,99852.80
2023-04-15T17:35:21.118Z,99857.36
2023-04-15T17:37:49.078Z,99867.04
2023-04-15T17:40:17.024Z,99875.14
2023-04-15T17:42:44.952Z,99879.95
2023-04-15T17:45:12.825Z,99890.83
2023-04-15T17:47:41.459Z,99904.94
2023-04-15T17:50:09.674Z,99907.23
2023-04-15T17:52:37.922Z,99912.95
2023-04-15T17:55:07.178Z,99920.09
2023-04-15T17:57:35.029Z,99925.06
2023-04-15T18:00:06.451Z,99928.17
2023-04-15T18:02:41.451Z,99931.33
2023-04-15T18:05:10.582Z,99933.57
2023-04-15T18:07:38.716Z,99930.48
2023-04-15T18:10:08.542Z,99933.67
2023-04-15T18:12:36.553Z,99934.86
2023-04-15T18:15:04.636Z,99937.42
2023-04-15T18:17:32.627Z,99939.31
2023-04-15T18:20:00.469Z,99936.48
2023-04-15T18:22:28.366Z,99938.42
2023-04-15T18:24:58.979Z,99937.46
2023-04-15T18:27:27.721Z,99937.23
2023-04-15T18:29:55.676Z,99937.87
2023-04-15T18:32:23.546Z,99941.69
2023-04-15T18:34:51.535Z,99944.90
2023-04-15T18:37:19.600Z,99947.15
2023-04-15T18:39:47.572Z,99949.11
2023-04-15T18:42:15.657Z,99946.09
2023-04-15T18:44:43.603Z,99951.09
2023-04-15T18:47:11.556Z,99958.20
2023-04-15T18:49:39.471Z,99958.30
2023-04-15T18:52:09.563Z,99965.11
2023-04-15T18:54:40.380Z,99971.34
2023-04-15T18:57:08.469Z,99973.53
2023-04-15T18:59:36.474Z,99979.44
2023-04-15T19:02:07.584Z,99979.83
2023-04-15T19:04:36.071Z,99980.86
2023-04-15T19:07:04.157Z,99982.19
2023-04-15T19:09:32.870Z,99985.36
2023-04-15T19:12:02.000Z,99991.36
2023-04-15T19:14:29.803Z,99995.44
2023-04-15T19:16:57.858Z,100000.23
2023-04-15T19:19:26.232Z,100005.55
2023-04-15T19:21:54.287Z,100006.48
2023-04-15T19:24:22.697Z,100012.30
2023-04-15T19:26:51.281Z,100015.95
2023-04-15T19:29:19.372Z,100015.80
2023-04-15T19:31:47.385Z,100017.02
2023-04-15T19:34:15.444Z,100022.71
2023-04-15T19:36:43.444Z,100023.84
2023-04-15T19:39:11.709Z,100027.05
2023-04-15T19:41:39.614Z,100030.45
2023-04-15T19:44:07.752Z,100032.34
2023-04-15T19:46:35.804Z,100034.05
2023-04-15T19:49:04.459Z,100030.02
2023-04-15T19:51:33.086Z,100032.71
2023-04-15T19:54:01.277Z,100038.38
2023-04-15T19:56:30.432Z,100039.42
2023-04-15T19:59:00.117Z,100042.19
2023-04-15T20:01:28.175Z,100048.95
2023-04-15T20:03:56.096Z,100048.06
2023-04-15T20:06:24.207Z,100050.23
2023-04-15T20:08:52.164Z,100052.48
2023-04-15T20:11:20.207Z,100051.63
2023-04-15T20:13:48.030Z,100051.19
2023-04-15T20:16:16.409Z,100046.98
2023-04-15T20:18:44.346Z,100046.36
2023-04-15T20:21:13.127Z,100045.42
2023-04-15T20:23:41.313Z,100044.89
2023-04-15T20:26:09.181Z,100042.78
2023-04-15T20:28:37.033Z,100037.36
2023-04-15T20:31:05.064Z,100040.59
2023-04-15T20:33:33.565Z,100035.22
2023-04-15T20:36:02.049Z,100041.05
2023-04-15T20:38:29.941Z,100041.11
2023-04-15T20:40:58.326Z,100040.05
2023-04-15T20:43:26.189Z,100036.48
2023-04-15T20:45:56.583Z,100039.12
2023-04-15T20:48:26.504Z,100041.85
2023-04-15T20:50:54.484Z,100043.31
2023-04-15T20:53:22.492Z,100041.29
2023-04-15T20:55:50.590Z,100048.49
2023-04-15T20:58:18.485Z,100047.36
2023-04-15T21:00:46.548Z,100052.31
2023-04-15T21:03:14.871Z,100052.02
2023-04-15T21:05:43.534Z,100057.67
2023-04-15T21:08:11.895Z,100057.30
2023-04-15T21:10:40.347Z,100058.98
2023-04-15T21:13:08.392Z,100058.40
2023-04-15T21:15:36.310Z,100063.25
2023-04-15T21:18:06.014Z,100065.06
2023-04-15T21:20:36.036Z,100067.08
2023-04-15T21:23:07.340Z,100071.33
2023-04-15T21:25:35.351Z,100068.44
2023-04-15T21:28:03.980Z,100070.00
2023-04-15T21:30:31.946Z,100070.38
2023-04-15T21:32:59.978Z,100071.64
2023-04-15T21:35:30.416Z,100073.05
2023-04-15T21:37:58.211Z,100075.52
2023-04-15T21:40:26.059Z,100074.79
2023-04-15T21:42:54.001Z,100072.62
2023-04-15T21:45:21.996Z,100074.18
2023-04-15T21:48:00.902Z,100072.30
2023-04-15T21:50:38.678Z,100074.15
2023-04-15T21:53:08.324Z,100075.25
2023-04-15T21:55:36.544Z,100081.70
2023-04-15T21:58:04.336Z,100084.44
2023-04-15T22:00:32.325Z,100090.17
2023-04-15T22:03:00.352Z,100091.95
2023-04-15T22:05:28.433Z,100097.21
2023-04-15T22:07:58.361Z,100100.91
2023-04-15T22:10:26.643Z,100101.89
2023-04-15T22:12:54.901Z,100103.59
2023-04-15T22:15:23.249Z,100108.14
2023-04-15T22:17:51.482Z,100110.30
2023-04-15T22:20:19.588Z,100110.10
2023-04-15T22:22:47.361Z,100109.26
2023-04-15T22:25:16.063Z,100112.55
2023-04-15T22:27:43.961Z,100114.55
2023-04-15T22:30:12.948Z,100119.46
2023-04-15T22:32:40.881Z,100117.28
2023-04-15T22:35:09.497Z,100120.69
2023-04-15T22:37:37.281Z,100119.05
2023-04-15T22:40:06.353Z,100119.64
2023-04-15T22:42:34.103Z,100120.70
2023-04-15T22:45:01.961Z,100122.08
2023-04-15T22:47:30.217Z,100124.16
2023-04-15T22:49:58.333Z,100124.78
2023-04-15T22:52:30.685Z,100126.60
2023-04-15T22:54:59.447Z,100127.42
2023-04-15T22:57:28.620Z,100125.63
2023-04-15T22:59:56.553Z,100129.50
2023-04-15T23:02:24.691Z,100130.10
2023-04-15T23:04:53.104Z,100132.80
2023-04-15T23:07:21.151Z,100132.27
2023-04-15T23:09:48.889Z,100134.52
2023-04-15T23:12:16.852Z,100136.02
2023-04-15T23:14:44.900Z,100134.02
2023-04-15T23:17:12.747Z,100138.42
2023-04-15T23:27:18.998Z,100136.79
2023-04-15T23:29:47.182Z,100129.88
2023-04-15T23:32:14.994Z,100126.98
2023-04-15T23:34:42.885Z,100132.20
2023-04-15T23:37:10.916Z,100133.89
2023-04-15T23:39:38.873Z,100131.93
2023-04-15T23:42:07.051Z,100133.17
2023-04-15T23:44:35.014Z,100134.29
2023-04-15T23:47:02.881Z,100135.53
2023-04-15T23:49:30.779Z,100138.09
2023-04-15T23:52:01.446Z,100136.95
2023-04-15T23:59:09.511Z,100130.15
